Time;durP1;ratioP1;P1;durP2;ratioP2;P2;SDS_P1;SDS_P2;PMS_P1;PMS_P2;Temp;Humidity;BMP_temperature;BMP_pressure;BME280_temperature;BME280_humidity;BME280_pressure;Samples;Min_cycle;Max_cycle;Signal;HPM_P1;HPM_P2
2021/10/24 00:01:42;;;;;;;7.57;3.20;;;;;;;10.19;56.15;101026.56;5030728;28;20049;-83
2021/10/24 00:04:09;;;;;;;8.95;2.95;;;;;;;10.18;56.08;101022.22;5030937;28;20090;-82
2021/10/24 00:06:39;;;;;;;7.57;3.70;;;;;;;10.14;56.25;101025.88;5030726;28;20052;-83
2021/10/24 00:09:07;;;;;;;6.78;3.05;;;;;;;10.13;56.22;101021.53;5030772;28;20569;-83
2021/10/24 00:11:36;;;;;;;6.25;3.50;;;;;;;10.11;56.29;101015.44;5030622;28;20057;-82
2021/10/24 00:14:07;;;;;;;9.23;3.15;;;;;;;10.08;56.27;101019.06;5030567;28;20060;-83
2021/10/24 00:16:35;;;;;;;8.93;3.50;;;;;;;10.08;56.26;101018.19;5030453;28;20045;-83
2021/10/24 00:19:03;;;;;;;8.15;3.15;;;;;;;10.05;56.20;101019.16;5030336;28;20053;-83
2021/10/24 00:21:32;;;;;;;9.25;3.47;;;;;;;10.02;56.59;101017.50;5030434;28;20054;-83
2021/10/24 00:23:59;;;;;;;9.50;3.28;;;;;;;10.03;56.38;101026.25;5030724;28;20079;-82
2021/10/24 00:26:26;;;;;;;5.57;3.08;;;;;;;10.01;56.25;101023.66;5030323;28;20148;-82
2021/10/24 00:28:55;;;;;;;6.85;2.90;;;;;;;9.98;56.35;101026.41;5030201;28;20045;-82
2021/10/24 00:31:22;;;;;;;9.98;3.28;;;;;;;9.97;56.40;101019.41;5030238;28;20531;-83
2021/10/24 00:34:03;;;;;;;7.00;3.25;;;;;;;9.90;56.66;101024.03;5030266;28;20061;-82
2021/10/24 00:36:30;;;;;;;6.72;3.30;;;;;;;9.93;56.22;101028.31;5030330;28;20052;-83
2021/10/24 00:38:57;;;;;;;9.30;3.47;;;;;;;9.90;56.21;101025.78;5030114;28;20061;-82
2021/10/24 00:41:24;;;;;;;7.90;3.67;;;;;;;9.88;56.26;101025.00;5030034;28;20053;-83
2021/10/24 00:43:52;;;;;;;7.65;3.33;;;;;;;9.83;56.30;101019.03;5029787;28;20421;-83
2021/10/24 00:46:19;;;;;;;10.48;3.70;;;;;;;9.81;56.47;101026.09;5030266;28;20050;-83
2021/10/24 00:48:54;;;;;;;7.22;3.55;;;;;;;9.76;56.43;101010.50;5029944;28;20060;-83
2021/10/24 00:51:26;;;;;;;7.93;3.38;;;;;;;9.69;56.82;101017.72;5029885;28;20056;-83
2021/10/24 00:53:54;;;;;;;6.05;3.53;;;;;;;9.70;56.72;101015.94;5031319;28;20557;-83
2021/10/24 00:56:21;;;;;;;8.80;3.50;;;;;;;9.68;56.66;101013.34;5029798;28;20136;-83
2021/10/24 00:58:50;;;;;;;6.85;3.53;;;;;;;9.67;56.74;101008.16;5029824;28;20140;-83
2021/10/24 01:01:18;;;;;;;7.80;3.58;;;;;;;9.64;56.68;101012.63;5031215;28;20102;-82
2021/10/24 01:03:48;;;;;;;5.20;3.08;;;;;;;9.60;56.88;101013.63;5029911;28;20053;-82
2021/10/24 01:06:15;;;;;;;7.80;3.67;;;;;;;9.60;56.66;101007.50;5029753;28;20128;-82
2021/10/24 01:08:42;;;;;;;5.95;3.50;;;;;;;9.59;56.59;101005.78;5029465;28;20064;-82
2021/10/24 01:11:09;;;;;;;10.73;3.75;;;;;;;9.57;56.79;101007.63;5029841;28;20060;-81
2021/10/24 01:13:36;;;;;;;7.80;3.53;;;;;;;9.55;56.79;100999.78;5029967;28;20488;-85
2021/10/24 01:16:16;;;;;;;9.55;3.75;;;;;;;9.50;57.22;101002.53;5029899;28;20129;-85
2021/10/24 01:18:48;;;;;;;8.65;3.53;;;;;;;9.50;56.96;100993.81;5029759;28;20092;-85
2021/10/24 01:21:16;;;;;;;8.65;3.65;;;;;;;9.50;56.78;100997.28;5029582;28;20090;-85
2021/10/24 01:23:43;;;;;;;10.60;3.40;;;;;;;9.46;56.94;100998.28;5030850;27;20102;-82
2021/10/24 01:26:13;;;;;;;6.68;3.60;;;;;;;9.44;57.06;100994.88;5029549;28;20053;-82
2021/10/24 01:28:40;;;;;;;9.27;3.55;;;;;;;9.43;56.95;100994.91;5029919;28;20477;-82
2021/10/24 01:31:06;;;;;;;7.18;3.40;;;;;;;9.38;56.99;100988.03;5029586;28;20485;-85
2021/10/24 01:33:33;;;;;;;7.82;3.63;;;;;;;9.36;57.12;100991.63;5029504;28;20057;-82
2021/10/24 01:36:07;;;;;;;7.82;3.92;;;;;;;9.34;57.11;100990.78;5029101;28;20087;-82
2021/10/24 01:38:36;;;;;;;6.60;3.35;;;;;;;9.33;57.25;100989.09;5029203;28;20064;-83
2021/10/24 01:41:07;;;;;;;7.18;3.42;;;;;;;9.30;57.14;100984.78;5029551;28;20508;-82
2021/10/24 01:43:34;;;;;;;9.65;4.07;;;;;;;9.28;57.24;100986.63;5029197;28;20058;-82
2021/10/24 01:46:03;;;;;;;6.63;3.30;;;;;;;9.27;57.05;100978.78;5030560;27;20106;-82
2021/10/24 01:48:30;;;;;;;7.28;3.95;;;;;;;9.24;57.27;100975.31;5028940;28;20067;-82
2021/10/24 01:50:58;;;;;;;7.97;3.55;;;;;;;9.22;57.30;100976.28;5029460;28;20057;-80
2021/10/24 01:53:28;;;;;;;6.40;3.47;;;;;;;9.19;57.30;100977.25;5029165;28;20057;-81
2021/10/24 01:55:57;;;;;;;6.28;3.80;;;;;;;9.18;57.40;100974.66;5029998;28;20499;-82
2021/10/24 01:58:24;;;;;;;5.68;3.50;;;;;;;9.16;57.18;100972.06;5032749;28;20408;-81
2021/10/24 02:00:53;;;;;;;7.57;3.55;;;;;;;9.14;57.37;100979.16;5033728;28;20063;-82
2021/10/24 02:03:27;;;;;;;7.13;3.97;;;;;;;9.08;57.48;100960.97;5032822;28;20405;-82
2021/10/24 02:05:54;;;;;;;7.30;3.53;;;;;;;9.09;57.45;100957.44;5032843;28;20409;-82
2021/10/24 02:08:21;;;;;;;8.35;3.80;;;;;;;9.07;57.38;100964.50;5032310;28;20058;-81
2021/10/24 02:10:48;;;;;;;8.13;4.00;;;;;;;9.06;57.56;100965.41;5032114;28;20054;-82
2021/10/24 02:13:15;;;;;;;8.45;3.50;;;;;;;9.04;57.67;100957.56;5031996;28;20161;-82
2021/10/24 02:15:42;;;;;;;6.22;3.50;;;;;;;9.03;57.45;100955.00;5031971;28;20058;-82
2021/10/24 02:18:13;;;;;;;8.73;4.18;;;;;;;8.99;57.66;100952.47;5031861;28;20054;-82
2021/10/24 02:20:41;;;;;;;9.85;3.95;;;;;;;8.99;57.78;100957.72;5032040;28;20050;-82
2021/10/24 02:23:09;;;;;;;4.68;3.40;;;;;;;8.98;57.53;100949.91;5031851;28;20060;-82
2021/10/24 02:25:38;;;;;;;8.60;4.05;;;;;;;8.96;57.62;100947.31;5031713;28;20050;-82
2021/10/24 02:28:05;;;;;;;7.43;3.70;;;;;;;8.96;57.61;100954.31;5032075;28;20458;-82
2021/10/24 02:30:33;;;;;;;11.23;3.90;;;;;;;8.94;57.54;100949.13;5032075;28;20119;-82
2021/10/24 02:33:03;;;;;;;8.18;3.42;;;;;;;8.91;57.43;100949.22;5032186;28;20053;-82
2021/10/24 02:35:30;;;;;;;5.70;3.97;;;;;;;8.91;57.45;100943.97;5032340;28;20479;-82
2021/10/24 02:37:57;;;;;;;9.57;3.53;;;;;;;8.89;57.62;100937.91;5031922;28;20137;-82
2021/10/24 02:40:27;;;;;;;13.10;4.00;;;;;;;8.86;57.70;100944.09;5033123;28;20409;-82
2021/10/24 02:42:57;;;;;;;7.15;3.90;;;;;;;8.84;57.63;100939.81;5032268;28;20049;-82
2021/10/24 02:45:23;;;;;;;7.93;3.83;;;;;;;8.84;57.60;100938.06;5031892;28;20057;-82
2021/10/24 02:47:50;;;;;;;9.15;3.80;;;;;;;8.84;57.41;100931.94;5031496;28;20056;-81
2021/10/24 02:50:18;;;;;;;8.93;3.90;;;;;;;8.83;57.71;100930.22;5032340;28;20417;-82
2021/10/24 02:52:45;;;;;;;6.22;3.90;;;;;;;8.82;57.84;100931.97;5031844;28;20053;-81
2021/10/24 02:55:13;;;;;;;6.13;3.63;;;;;;;8.81;57.62;100919.75;5032001;28;20054;-82
2021/10/24 02:57:44;;;;;;;8.00;3.92;;;;;;;8.79;57.85;100925.97;5031684;28;20045;-82
2021/10/24 03:00:11;;;;;;;6.80;4.10;;;;;;;8.80;57.58;100914.56;5031688;28;20054;-82
2021/10/24 03:02:38;;;;;;;5.60;3.47;;;;;;;8.79;57.77;100923.34;5031704;28;20045;-82
2021/10/24 03:05:08;;;;;;;6.72;3.55;;;;;;;8.76;57.83;100921.69;5031625;28;20057;-82
2021/10/24 03:07:37;;;;;;;6.82;3.63;;;;;;;8.76;57.82;100921.69;5031428;28;20136;-82
2021/10/24 03:10:04;;;;;;;7.70;4.20;;;;;;;8.74;57.76;100920.84;5031646;28;20064;-81
2021/10/24 03:12:32;;;;;;;7.30;3.95;;;;;;;8.73;57.56;100927.88;5031547;28;20140;-82
2021/10/24 03:15:00;;;;;;;6.32;3.67;;;;;;;8.71;57.60;100918.34;5031840;28;20057;-82
2021/10/24 03:17:30;;;;;;;6.90;3.63;;;;;;;8.69;57.83;100918.38;5032227;28;20418;-82
2021/10/24 03:19:56;;;;;;;8.20;3.80;;;;;;;8.69;57.91;100914.88;5031398;28;20053;-81
2021/10/24 03:22:23;;;;;;;8.70;3.65;;;;;;;8.68;57.65;100911.38;5031552;28;20064;-82
2021/10/24 03:25:02;;;;;;;6.93;3.95;;;;;;;8.63;58.03;100908.06;5031331;28;20050;-82
2021/10/24 03:27:29;;;;;;;7.10;4.07;;;;;;;8.66;57.58;100905.34;5031785;28;20045;-82
2021/10/24 03:29:57;;;;;;;6.00;3.55;;;;;;;8.65;57.73;100902.75;5031359;28;20128;-82
2021/10/24 03:32:47;;;;;;;6.70;3.72;;;;;;;8.58;58.13;100913.47;5031292;28;20050;-82
2021/10/24 03:35:14;;;;;;;5.50;3.80;;;;;;;8.62;57.77;100905.47;5031183;28;20050;-82
2021/10/24 03:37:40;;;;;;;8.07;3.83;;;;;;;8.61;58.06;100899.38;5031114;28;20045;-82
2021/10/24 03:40:26;;;;;;;8.07;4.18;;;;;;;8.56;58.53;100911.78;5030949;28;20059;-82
2021/10/24 03:42:53;;;;;;;10.23;4.13;;;;;;;8.59;58.19;100901.16;5032383;27;20057;-82
2021/10/24 03:45:19;;;;;;;11.05;4.68;;;;;;;8.58;58.00;100902.97;5031134;28;20067;-82
2021/10/24 03:47:54;;;;;;;5.18;3.63;;;;;;;8.55;57.92;100896.91;5032190;28;20045;-82
2021/10/24 03:50:21;;;;;;;7.82;3.95;;;;;;;8.55;58.20;100905.66;5030837;28;20058;-81
2021/10/24 03:52:48;;;;;;;9.45;4.25;;;;;;;8.54;58.02;100903.09;5030867;28;20051;-81
2021/10/24 03:55:20;;;;;;;7.72;4.10;;;;;;;8.50;58.32;100894.41;5030888;28;20141;-81
2021/10/24 03:57:47;;;;;;;10.43;4.50;;;;;;;8.51;57.76;100897.88;5031597;28;20473;-82
2021/10/24 04:00:14;;;;;;;8.07;4.43;;;;;;;8.48;57.87;100899.72;5030654;28;20469;-82
2021/10/24 04:03:02;;;;;;;7.85;4.95;;;;;;;8.44;57.94;100897.22;5030742;28;20053;-82
2021/10/24 04:05:29;;;;;;;5.13;4.00;;;;;;;8.46;58.01;100898.88;5030761;28;20060;-82
2021/10/24 04:07:56;;;;;;;5.68;3.85;;;;;;;8.46;58.25;100898.88;5030997;28;20068;-82
2021/10/24 04:10:26;;;;;;;5.75;4.15;;;;;;;8.43;58.23;100893.75;5030885;28;20540;-82
2021/10/24 04:12:54;;;;;;;7.05;4.10;;;;;;;8.44;58.19;100894.59;5030846;28;20061;-81
2021/10/24 04:15:22;;;;;;;6.95;4.22;;;;;;;8.43;58.08;100892.88;5030560;28;20058;-82
2021/10/24 04:17:50;;;;;;;4.78;3.60;;;;;;;8.42;58.13;100897.28;5030734;28;20524;-82
2021/10/24 04:20:19;;;;;;;6.57;3.90;;;;;;;8.41;58.16;100895.53;5030041;28;20474;-82
2021/10/24 04:22:48;;;;;;;6.55;4.15;;;;;;;8.40;58.04;100882.47;5030752;28;20451;-82
2021/10/24 04:25:34;;;;;;;7.80;4.40;;;;;;;8.35;58.71;100890.47;5030735;28;20049;-82
2021/10/24 04:28:01;;;;;;;7.50;3.72;;;;;;;8.38;58.05;100885.16;5031440;28;20428;-82
2021/10/24 04:30:27;;;;;;;6.28;3.97;;;;;;;8.37;58.20;100885.19;5030483;28;20104;-82
2021/10/24 04:32:54;;;;;;;4.65;3.90;;;;;;;8.35;58.17;100882.63;5030169;28;20417;-82
2021/10/24 04:35:21;;;;;;;11.18;4.07;;;;;;;8.33;58.22;100884.41;5030234;28;20058;-82
2021/10/24 04:37:57;;;;;;;7.13;4.10;;;;;;;8.29;58.37;100875.78;5030414;28;20465;-82
2021/10/24 04:40:24;;;;;;;5.93;3.75;;;;;;;8.31;58.22;100879.22;5030068;28;20152;-82
2021/10/24 04:42:51;;;;;;;7.40;4.28;;;;;;;8.31;58.02;100881.00;5030455;28;20557;-81
2021/10/24 04:45:21;;;;;;;7.57;3.92;;;;;;;8.30;58.42;100881.91;5030295;28;20064;-82
2021/10/24 04:47:47;;;;;;;6.70;4.03;;;;;;;8.29;58.51;100881.03;5029986;28;20476;-82
2021/10/24 04:50:14;;;;;;;8.77;4.20;;;;;;;8.29;58.31;100881.03;5030133;28;20409;-81
2021/10/24 04:52:41;;;;;;;6.68;3.85;;;;;;;8.29;58.04;100882.78;5030323;28;20057;-82
2021/10/24 04:55:08;;;;;;;5.43;3.70;;;;;;;8.28;58.36;100881.06;5030302;28;20056;-82
2021/10/24 04:57:40;;;;;;;8.38;3.50;;;;;;;8.26;58.73;100878.47;5029872;28;20045;-82
2021/10/24 05:00:07;;;;;;;6.10;4.00;;;;;;;8.27;58.37;100881.97;5029807;28;20390;-82
2021/10/24 05:02:34;;;;;;;6.13;3.42;;;;;;;8.27;58.53;100876.72;5029990;28;20080;-82
2021/10/24 05:05:03;;;;;;;7.90;3.60;;;;;;;8.26;58.49;100881.09;5030155;28;20049;-81
2021/10/24 05:07:30;;;;;;;7.13;3.53;;;;;;;8.27;58.15;100879.34;5030079;28;20840;-81
2021/10/24 05:09:57;;;;;;;7.05;3.80;;;;;;;8.26;58.34;100872.41;5031124;28;20405;-82
2021/10/24 05:12:25;;;;;;;4.95;3.25;;;;;;;8.26;58.50;100880.25;5031258;28;20059;-81
2021/10/24 05:14:52;;;;;;;6.28;3.78;;;;;;;8.26;58.26;100868.00;5029815;28;20061;-81
2021/10/24 05:17:19;;;;;;;5.70;3.40;;;;;;;8.26;58.42;100865.38;5029833;28;20041;-82
2021/10/24 05:19:46;;;;;;;7.13;4.03;;;;;;;8.25;58.70;100868.03;5029440;28;20053;-81
2021/10/24 05:22:13;;;;;;;5.75;2.92;;;;;;;8.26;58.41;100864.53;5029918;28;20053;-81
2021/10/24 05:24:39;;;;;;;9.30;3.38;;;;;;;8.25;58.70;100861.03;5029903;28;20107;-81
2021/10/24 05:27:19;;;;;;;7.40;3.25;;;;;;;8.21;58.65;100862.91;5029898;28;20055;-81
2021/10/24 05:29:45;;;;;;;6.47;3.35;;;;;;;8.25;58.51;100860.16;5029184;28;20049;-81
2021/10/24 05:32:12;;;;;;;7.20;3.53;;;;;;;8.24;58.54;100856.69;5029409;28;20447;-81
2021/10/24 05:34:46;;;;;;;6.18;3.50;;;;;;;8.21;59.13;100856.78;5029412;28;20063;-81
2021/10/24 05:37:13;;;;;;;6.32;3.88;;;;;;;8.23;58.60;100857.63;5029313;28;20125;-81
2021/10/24 05:39:40;;;;;;;6.35;3.53;;;;;;;8.23;58.82;100862.00;5029347;28;20050;-81
2021/10/24 05:42:08;;;;;;;6.28;3.53;;;;;;;8.20;58.81;100855.94;5029387;28;20064;-81
2021/10/24 05:44:35;;;;;;;5.03;3.20;;;;;;;8.21;58.55;100856.78;5029284;28;20056;-82
2021/10/24 05:47:02;;;;;;;4.97;3.40;;;;;;;8.19;58.83;100851.56;5029539;28;20060;-82
2021/10/24 05:49:35;;;;;;;5.15;3.20;;;;;;;8.16;58.93;100849.06;5030604;28;20497;-82
2021/10/24 05:52:03;;;;;;;5.90;3.42;;;;;;;8.18;58.79;100844.63;5030403;28;20486;-81
2021/10/24 05:54:29;;;;;;;7.88;3.42;;;;;;;8.17;58.74;100845.53;5029180;28;20053;-82
2021/10/24 05:57:13;;;;;;;8.48;2.97;;;;;;;8.12;59.36;100844.81;5029407;28;20156;-82
2021/10/24 05:59:41;;;;;;;4.38;3.20;;;;;;;8.16;58.68;100838.56;5028953;28;20137;-82
2021/10/24 06:02:11;;;;;;;7.38;3.35;;;;;;;8.16;59.03;100840.31;5028910;28;20064;-85
2021/10/24 06:04:44;;;;;;;5.45;3.70;;;;;;;8.13;59.40;100843.03;5029199;28;20144;-85
2021/10/24 06:07:11;;;;;;;5.97;3.58;;;;;;;8.15;59.21;100834.22;5029139;28;20049;-85
2021/10/24 06:09:51;;;;;;;4.53;3.28;;;;;;;8.12;59.44;100834.31;5028774;28;20045;-85
2021/10/24 06:15:03;;;;;;;5.73;3.27;;;;;;;8.14;59.04;100840.38;5030283;27;20416;-84
2021/10/24 06:17:30;;;;;;;4.07;2.92;;;;;;;8.15;58.97;100834.22;5028745;28;20049;-86
2021/10/24 06:20:06;;;;;;;5.90;3.38;;;;;;;8.12;59.23;100836.94;5028734;28;20402;-84
2021/10/24 06:23:23;;;;;;;8.02;2.97;;;;;;;8.12;59.26;100844.81;5028789;28;20053;-85
2021/10/24 06:26:39;;;;;;;6.45;3.17;;;;;;;8.12;59.19;100838.69;5029092;28;20053;-85
2021/10/24 06:30:19;;;;;;;4.55;3.05;;;;;;;8.12;59.04;100846.56;5025678;28;20094;-84
2021/10/24 06:33:44;;;;;;;5.85;2.97;;;;;;;8.10;59.33;100841.34;5029267;28;20108;-84
2021/10/24 06:37:03;;;;;;;5.63;3.03;;;;;;;8.10;59.36;100840.53;5056452;28;20056;-89
2021/10/24 06:39:39;;;;;;;5.60;2.85;;;;;;;8.10;59.62;100840.53;5028776;28;20449;-89
2021/10/24 06:42:09;;;;;;;6.70;3.00;;;;;;;8.12;58.92;100838.69;5030830;28;20053;-85
2021/10/24 06:44:40;;;;;;;5.90;2.92;;;;;;;8.09;59.32;100839.66;5031819;28;20064;-85
2021/10/24 06:47:10;;;;;;;4.35;3.00;;;;;;;8.09;58.98;100829.16;5032559;28;20050;-85
2021/10/24 06:49:40;;;;;;;4.45;2.95;;;;;;;8.11;59.28;100829.13;5032143;28;20278;-84
2021/10/24 06:52:07;;;;;;;6.10;3.38;;;;;;;8.10;59.44;100830.03;5032004;28;20485;-84
2021/10/24 06:54:37;;;;;;;7.30;3.00;;;;;;;8.09;59.34;100826.53;5032138;28;20481;-85
2021/10/24 06:57:04;;;;;;;6.20;3.10;;;;;;;8.12;59.42;100826.44;5031911;28;20045;-85
2021/10/24 06:59:31;;;;;;;8.43;3.38;;;;;;;8.13;59.18;100827.28;5031650;28;20049;-84
2021/10/24 07:01:59;;;;;;;4.97;2.75;;;;;;;8.13;59.50;100828.16;5032007;28;20050;-84
2021/10/24 07:04:28;;;;;;;5.75;2.78;;;;;;;8.16;59.72;100833.34;5031655;28;20128;-84
2021/10/24 07:06:56;;;;;;;4.20;2.67;;;;;;;8.17;59.62;100823.69;5031724;28;20060;-84
2021/10/24 07:09:49;;;;;;;6.50;3.28;;;;;;;8.17;60.19;100832.41;5031575;28;20053;-84
2021/10/24 07:12:17;;;;;;;7.30;3.13;;;;;;;8.23;59.71;100825.25;5031365;28;20057;-84
2021/10/24 07:14:44;;;;;;;5.75;2.75;;;;;;;8.26;59.81;100827.81;5031808;28;20049;-84
2021/10/24 07:17:49;;;;;;;5.05;2.67;;;;;;;8.24;60.20;100825.22;5031214;28;20053;-84
2021/10/24 07:20:16;;;;;;;6.25;2.92;;;;;;;8.32;59.67;100828.47;5031284;28;20061;-84
2021/10/24 07:22:44;;;;;;;7.50;3.25;;;;;;;8.33;59.58;100829.31;5031343;28;20049;-83
2021/10/24 07:25:13;;;;;;;7.68;2.95;;;;;;;8.35;59.67;100824.91;5031192;28;20060;-84
2021/10/24 07:27:41;;;;;;;5.65;3.10;;;;;;;8.37;59.97;100828.31;5031557;28;20460;-83
2021/10/24 07:30:13;;;;;;;5.82;3.30;;;;;;;8.39;60.07;100828.28;5031158;28;20057;-83
2021/10/24 07:32:40;;;;;;;5.23;2.87;;;;;;;8.43;59.47;100829.91;5031684;28;20557;-84
2021/10/24 07:35:10;;;;;;;3.85;2.97;;;;;;;8.45;59.56;100834.19;5031339;28;20114;-84
2021/10/24 07:37:38;;;;;;;5.05;3.33;;;;;;;8.50;59.77;100822.69;5031339;28;20124;-84
2021/10/24 07:40:09;;;;;;;6.65;2.75;;;;;;;8.51;60.16;100821.78;5030782;28;20049;-84
2021/10/24 07:42:37;;;;;;;6.25;2.60;;;;;;;8.55;59.96;100824.31;5031056;28;20453;-83
2021/10/24 07:45:06;;;;;;;4.13;2.97;;;;;;;8.58;59.67;100821.59;5030930;28;20049;-84
2021/10/24 07:47:51;;;;;;;3.20;2.50;;;;;;;8.58;60.18;100820.72;5031058;28;20098;-84
2021/10/24 07:50:19;;;;;;;4.00;2.47;;;;;;;8.66;59.97;100808.22;5030468;28;20053;-83
2021/10/24 07:52:46;;;;;;;5.40;2.70;;;;;;;8.68;59.56;100811.63;5030888;28;20098;-84
2021/10/24 07:55:13;;;;;;;4.22;2.47;;;;;;;8.70;59.72;100804.59;5030940;28;20401;-84
2021/10/24 07:58:07;;;;;;;5.07;2.47;;;;;;;8.71;60.16;100805.47;5030807;28;20532;-83
2021/10/24 08:00:34;;;;;;;4.60;2.53;;;;;;;8.79;59.87;100813.09;5030651;28;20046;-83
2021/10/24 08:03:17;;;;;;;5.35;3.00;;;;;;;8.80;59.97;100812.16;5030557;28;20054;-83
2021/10/24 08:05:44;;;;;;;6.38;3.33;;;;;;;8.88;59.58;100811.91;5030735;28;20461;-83
2021/10/24 08:08:18;;;;;;;9.73;3.00;;;;;;;8.89;59.91;100809.22;5030723;28;20541;-83
2021/10/24 08:10:45;;;;;;;5.22;3.08;;;;;;;8.95;59.71;100810.81;5030613;28;20081;-83
2021/10/24 08:13:17;;;;;;;6.90;2.85;;;;;;;8.97;59.92;100812.47;5030474;28;20049;-83
2021/10/24 08:15:48;;;;;;;5.97;2.77;;;;;;;9.03;59.78;100797.41;5030327;28;20084;-84
2021/10/24 08:18:20;;;;;;;4.75;2.78;;;;;;;9.08;59.70;100800.75;5030158;28;20121;-83
2021/10/24 08:20:47;;;;;;;5.60;2.60;;;;;;;9.13;59.78;100793.56;5030044;28;20053;-83
2021/10/24 08:23:16;;;;;;;6.43;2.85;;;;;;;9.17;60.12;100789.94;5030592;28;20057;-83
2021/10/24 08:25:44;;;;;;;6.68;2.83;;;;;;;9.24;59.75;100793.22;5030445;28;20057;-83
2021/10/24 08:28:12;;;;;;;8.02;3.25;;;;;;;9.28;59.96;100786.06;5030397;28;20079;-83
2021/10/24 08:30:39;;;;;;;4.88;2.65;;;;;;;9.34;59.81;100783.22;5030399;28;20467;-83
2021/10/24 08:33:06;;;;;;;6.38;2.75;;;;;;;9.38;59.88;100784.81;5030250;28;20132;-83
2021/10/24 08:35:34;;;;;;;8.85;2.70;;;;;;;9.43;59.73;100788.16;5030340;28;20110;-83
2021/10/24 08:38:01;;;;;;;7.22;2.65;;;;;;;9.49;59.44;100787.06;5030010;28;20061;-83
2021/10/24 08:40:34;;;;;;;5.10;2.90;;;;;;;9.51;59.53;100780.88;5031113;28;20106;-83
2021/10/24 08:43:14;;;;;;;3.95;2.47;;;;;;;9.60;59.50;100771.78;5030134;28;20424;-83
2021/10/24 08:45:43;;;;;;;6.57;2.90;;;;;;;9.67;59.54;100764.50;5030453;28;20053;-83
2021/10/24 08:48:10;;;;;;;6.93;3.47;;;;;;;9.72;59.49;100765.19;5030016;28;20057;-83
2021/10/24 08:50:49;;;;;;;6.60;3.10;;;;;;;9.74;59.37;100760.75;5063117;28;20059;-83
2021/10/24 08:53:25;;;;;;;8.20;3.33;;;;;;;9.82;59.35;100763.09;5030259;28;20088;-83
2021/10/24 08:55:56;;;;;;;5.93;2.92;;;;;;;9.89;59.08;100771.59;5030698;28;20049;-83
2021/10/24 08:58:23;;;;;;;4.68;3.15;;;;;;;9.96;59.32;100769.59;5029993;28;20132;-83
2021/10/24 09:00:58;;;;;;;7.18;2.88;;;;;;;9.98;59.22;100771.25;5029980;28;20081;-82
2021/10/24 09:03:25;;;;;;;5.28;2.97;;;;;;;10.05;59.03;100758.72;5029865;28;20057;-83
2021/10/24 09:05:52;;;;;;;5.82;2.72;;;;;;;10.11;59.20;100762.88;5030480;27;20068;-82
2021/10/24 09:08:25;;;;;;;4.30;2.42;;;;;;;10.15;58.80;100753.97;5062762;27;20061;-83
2021/10/24 09:10:56;;;;;;;5.63;2.95;;;;;;;10.23;59.00;100751.88;5029750;28;20140;-83
2021/10/24 09:13:34;;;;;;;5.28;2.65;;;;;;;10.26;58.23;100751.78;5029497;28;20050;-83
2021/10/24 09:16:07;;;;;;;6.45;2.67;;;;;;;10.34;58.22;100751.47;5029492;28;20425;-82
2021/10/24 09:18:37;;;;;;;3.47;2.53;;;;;;;10.41;58.45;100746.81;5029383;28;20049;-83
2021/10/24 09:21:16;;;;;;;5.10;2.28;;;;;;;10.43;57.93;100740.56;5029907;28;20501;-83
2021/10/24 09:24:04;;;;;;;4.60;2.47;;;;;;;10.49;57.94;100734.22;5029742;28;20052;-83
2021/10/24 09:26:47;;;;;;;5.22;2.30;;;;;;;10.58;58.02;100732.13;5028663;28;20052;-83
2021/10/24 09:29:15;;;;;;;6.03;2.28;;;;;;;10.65;58.11;100729.19;5029504;28;20396;-83
2021/10/24 09:31:51;;;;;;;6.13;2.50;;;;;;;10.68;57.63;100718.53;5029583;28;20390;-83
2021/10/24 09:34:23;;;;;;;5.60;2.38;;;;;;;10.76;57.74;100723.47;5062662;28;20053;-83
2021/10/24 09:37:17;;;;;;;8.02;2.80;;;;;;;10.78;57.75;100721.63;5029397;28;20131;-83
2021/10/24 09:39:44;;;;;;;5.53;2.70;;;;;;;10.90;57.97;100722.00;5029407;28;20124;-83
2021/10/24 09:42:16;;;;;;;6.00;2.45;;;;;;;10.93;57.76;100717.50;5062320;27;20565;-83
2021/10/24 09:45:05;;;;;;;4.60;2.50;;;;;;;10.95;57.52;100713.00;5029596;28;20046;-82
2021/10/24 09:47:41;;;;;;;4.07;2.10;;;;;;;11.04;56.85;100711.75;5030213;28;20071;-83
2021/10/24 09:50:57;;;;;;;4.50;2.22;;;;;;;11.08;57.57;100709.81;5028821;28;20045;-83
2021/10/24 09:53:31;;;;;;;3.72;2.35;;;;;;;11.18;57.00;100705.03;5029804;28;20569;-82
2021/10/24 09:56:11;;;;;;;4.50;2.47;;;;;;;11.23;56.79;100703.03;5028575;28;20053;-82
2021/10/24 09:58:42;;;;;;;5.78;3.00;;;;;;;11.30;56.93;100698.34;5027534;28;20468;-82
2021/10/24 10:01:14;;;;;;;5.10;2.53;;;;;;;11.34;56.89;100692.84;5028067;28;20492;-83
2021/10/24 10:03:47;;;;;;;5.55;3.28;;;;;;;11.41;56.72;100693.44;5028605;28;20061;-82
2021/10/24 10:06:25;;;;;;;3.58;2.13;;;;;;;11.45;55.97;100691.50;5028873;28;20074;-83
2021/10/24 10:08:51;;;;;;;4.68;2.60;;;;;;;11.54;56.70;100685.81;5028427;28;20144;-81
2021/10/24 10:11:26;;;;;;;5.28;2.50;;;;;;;11.59;56.34;100688.25;5029032;28;20064;-82
2021/10/24 10:13:58;;;;;;;5.85;2.33;;;;;;;11.68;56.75;100686.94;5029243;28;20053;-82
2021/10/24 10:16:35;;;;;;;6.72;2.67;;;;;;;11.73;56.31;100682.31;5029259;28;20404;-82
2021/10/24 10:19:05;;;;;;;3.55;2.20;;;;;;;11.86;57.21;100690.53;5029983;28;20094;-83
2021/10/24 10:21:34;;;;;;;4.63;2.67;;;;;;;11.95;56.95;100684.78;5032309;28;20090;-83
2021/10/24 10:24:06;;;;;;;3.90;2.28;;;;;;;12.06;56.54;100672.88;5033440;28;20141;-83
2021/10/24 10:26:54;;;;;;;5.78;2.63;;;;;;;12.19;56.29;100676.63;5032475;28;20449;-83
2021/10/24 10:29:50;;;;;;;6.57;2.42;;;;;;;12.31;56.05;100685.75;5032320;28;20478;-83
2021/10/24 10:32:19;;;;;;;4.95;2.97;;;;;;;12.48;56.85;100682.28;5031998;27;20080;-83
2021/10/24 10:34:59;;;;;;;6.30;2.80;;;;;;;12.58;56.87;100671.22;5032419;28;20529;-83
2021/10/24 10:37:49;;;;;;;5.50;2.38;;;;;;;12.73;56.79;100664.31;5033122;28;20054;-83
2021/10/24 10:40:38;;;;;;;5.25;2.38;;;;;;;12.90;56.49;100666.09;5032342;28;20053;-84
2021/10/24 10:43:56;;;;;;;6.20;2.58;;;;;;;13.08;56.38;100664.25;5032148;28;20053;-84
2021/10/24 10:46:35;;;;;;;3.45;2.45;;;;;;;13.28;55.98;100660.53;5019532;28;20125;-84
2021/10/24 10:49:21;;;;;;;5.63;2.42;;;;;;;13.50;56.42;100650.63;5031913;28;20049;-84
2021/10/24 10:51:48;;;;;;;5.45;2.45;;;;;;;13.79;58.15;100648.13;5032058;28;20054;-84
2021/10/24 10:54:42;;;;;;;6.35;2.78;;;;;;;14.12;57.94;100652.47;5032089;28;20053;-84
2021/10/24 10:57:54;;;;;;;3.60;2.33;;;;;;;14.71;57.59;100645.53;5031893;28;20060;-82
2021/10/24 11:05:09;;;;;;;4.45;2.13;;;;;;;16.47;54.63;100641.59;5032799;28;20048;-83
2021/10/24 11:07:44;;;;;;;3.97;2.40;;;;;;;16.93;52.56;100642.91;5031362;28;20060;-84
2021/10/24 11:10:44;;;;;;;3.33;2.60;;;;;;;17.23;50.98;100638.22;5032765;28;20049;-84
2021/10/24 11:13:26;;;;;;;4.50;2.15;;;;;;;17.47;51.77;100637.41;5031800;28;20469;-84
2021/10/24 11:16:33;;;;;;;4.53;2.15;;;;;;;17.70;50.90;100635.75;5031838;28;20443;-84
2021/10/24 11:19:05;;;;;;;5.72;2.28;;;;;;;18.09;52.90;100633.78;4974928;28;20069;-84
2021/10/24 11:21:36;;;;;;;4.13;2.20;;;;;;;18.55;54.24;100631.28;4975229;28;20560;-84
2021/10/24 11:27:46;;;;;;;4.65;1.90;;;;;;;20.09;50.90;100626.28;4990887;28;20087;-84
2021/10/24 11:30:18;;;;;;;3.33;1.80;;;;;;;20.79;48.79;100619.56;5011788;28;20049;-84
2021/10/24 11:32:52;;;;;;;3.75;2.10;;;;;;;21.46;47.54;100619.94;5031176;28;20046;-84
2021/10/24 11:35:36;;;;;;;2.53;1.67;;;;;;;22.13;46.67;100605.94;4936501;29;20558;-84
2021/10/24 11:38:08;;;;;;;2.45;1.80;;;;;;;22.75;45.15;100607.38;4936418;28;20059;-84
2021/10/24 11:40:53;;;;;;;5.00;1.80;;;;;;;23.32;44.57;100602.88;4936690;28;20063;-84
2021/10/24 11:43:23;;;;;;;3.20;1.95;;;;;;;23.87;44.26;100598.41;4936445;28;20078;-84
2021/10/24 11:45:57;;;;;;;3.78;2.00;;;;;;;24.34;41.97;100601.84;4936767;28;20058;-84
2021/10/24 11:48:30;;;;;;;5.18;1.70;;;;;;;24.79;39.42;100601.78;4936195;29;20051;-84
2021/10/24 11:51:09;;;;;;;2.88;1.90;;;;;;;25.18;39.57;100592.34;4952256;29;20138;-84
2021/10/24 11:53:38;;;;;;;3.45;1.77;;;;;;;25.56;40.33;100584.72;4987206;28;20091;-84
2021/10/24 11:56:08;;;;;;;3.25;1.83;;;;;;;25.90;38.85;100588.28;5030804;28;20133;-84
2021/10/24 11:58:51;;;;;;;3.42;1.70;;;;;;;26.21;37.34;100593.03;5031016;28;20050;-84
2021/10/24 12:01:25;;;;;;;2.83;1.40;;;;;;;26.54;37.33;100579.47;5031424;28;20124;-84
2021/10/24 12:03:55;;;;;;;6.05;2.33;;;;;;;26.88;38.18;100579.38;5030489;28;20061;-84
2021/10/24 12:06:47;;;;;;;3.30;1.85;;;;;;;27.16;37.46;100578.94;5030966;28;20061;-84
2021/10/24 12:09:36;;;;;;;4.40;1.80;;;;;;;27.44;35.64;100573.03;5030741;28;20053;-84